Jever, Germany

6:00 PM CEST on October 21, 2014 (GMT +0200)
Schortens | Change Station
CLOSE
Current Station
Personal Weather Station
Location: Heidmuehle, Niedersachsen
Elevation: 30 ft
Nearby Weather Stations

Elev 30 ft 53.54 °N, 7.95 °E | Updated 24 seconds ago

Drizzle
Drizzle Mist
53.4 °F
Feels Like 53.4 °F
N
6.0
Wind Variable Wind from West
Gusts 8.0 mph

Today
High -- | Low -- °F
--% Chance of Precip.
Yesterday
High -- | Low -- °F
Precip. -- in
8:06 AM 6:18 PM
Waning Crescent, 5% visible
Pressure 29.33 in
Visibility 1.9 miles
Clouds Scattered Clouds 800 ft
Mostly Cloudy 1600 ft
Dew Point 53 °F
Humidity 100%
Rainfall 0.28 in
Snow Depth Not available.
UV 0 out of 12
Pollen Not available.
Air Quality Not available.
Flu Activity Not available.
SPECI ETMN 211550Z 21013KT 3000 DZ BR SCT008 BKN016 12/11 Q0993 YLO GRN TEMPO YLO

More Conditions Fewer Conditions

Pressure 29.33 in
Visibility 1.9 miles
Clouds Scattered Clouds 800 ft
Mostly Cloudy 1600 ft
Dew Point 53 °F
Humidity 100%
Rainfall 0.28 in
Snow Depth Not available.
UV 0 out of 12
Pollen Not available.
Air Quality Not available.
Flu Activity Not available.
SPECI ETMN 211550Z 21013KT 3000 DZ BR SCT008 BKN016 12/11 Q0993 YLO GRN TEMPO YLO

More Conditions Fewer Conditions

10-Day Weather Forecast

Almanac

Astronomy

Oct. 21, 2014 Rise Set
Actual Time 8:06 AM CEST 6:18 PM CEST
Civil Twilight 7:30 AM CEST 6:54 PM CEST
Nautical Twilight 6:49 AM CEST 7:35 PM CEST
Astronomical Twilight 6:09 AM CEST 8:15 PM CEST
Moon 5:14 AM CEST 5:21 PM CEST
Length of Visible Light 11h 24m
Length of Day
10h 12m
Tomorrow will be 4m 5s shorter.
Waning Crescent, 5% of the Moon is Illuminated
Today
Waning Crescent
Oct 23
New
Oct 30
First Quarter
Nov 6
Full
Nov 14
Last Quarter

Today's Extremes

Country Highs Country Lows

Community

WunderPhotos

Upload Photos

1,763,704 photos uploaded!

WunderBlogs® & News

Nearby

Snow Depth

Not available.

Earthquake Activity

City Distance Mag. Time & Date
No recent earthquake activity has been reported nearby.
Minimum magnitude displayed is 2.5.

Coastal Water Temperatures

Place Temperature
No Stations Reporting

Nearby Weather Stations